カンザスシティ の空港の天気 - METARとTAF

カンザスシティ国際空港 ( KMCI / MCI ) - アメリカ ミズーリ州カンザスシティ
飛行場実況気象(Metar)
観測時間02/17 08:53 CST (02/17 14:53 UTC)
風向・風速西北西 4m/s
視程6450m
天気現象もや
全天を覆う雲 雲底高度 300m
気温-5℃
湿度88%
気圧1011.4hPa
METARKMCI 171453Z 29008KT 4SM BR OVC010 M05/M07 A2984 RMK AO2 SLP114 60000 T10501067 53025
過去の天気等 Google飛行場航空写真 Wunderground天気予報

過去48時間のMETAR

飛行場予報(TAF)
発表時間: 2/17 05:34 CST (2/17 11:34 UTC)
予報対象時間: 17日6時 CST ~ 18日6時 CST
風向・風速西北西 4m/s
視程8050m
天気現象もや
全天を覆う雲 雲底高度 150m
17日8時 CST から
風向・風速西北西 4m/s
視程10km以上
全天を覆う雲 雲底高度 300m
17日10時 CST から
風向・風速西北西 5m/s
視程10km以上
全天を覆う雲 雲底高度 760m
17日15時 CST から
風向・風速北西 6m/s
視程10km以上
全天の8割程度の雲 雲底高度 1070m
KMCI 171134Z 1712/1812 29007KT 5SM BR OVC005
FM171400 29007KT P6SM OVC010
FM171600 30010KT P6SM OVC025
FM172100 31012KT P6SM BKN035